Terminal Aerodrome Forecast
Issued by NWS

Home | Current Version | Previous Version | Text Only | Print | Product List | Glossary On
Versions: 1 2 3 4 5 6 7 8 9 10 11 12 13 14 15 16 17 18
000
FTUS46 KSEW 301800 AAA
TAFHQM
TAF AMD
KHQM 301801Z 3018/3118 07007KT 5SM BR FEW003
      TEMPO 3018/3020 1 1/2SM BR VV002
     FM302000 07007KT P6SM SKC
     FM310000 04005KT P6SM SKC
     FM310600 04005KT 5SM BR SKC
     FM310900 04005KT 1SM BR VV002
      TEMPO 3114/3118 1/4SM FG
      AMD NOT SKED=

USA.gov is the U.S. government's official web portal to all federal, state and local government web resources and services.